N403AG KLAL-KD79
Flight info
| Callsign | N403AG |
|---|---|
| Flight time | N/A |
| Altitude | 16500 |
| Route | SBOAT KPASA Q99 DOFFY Q65 ENEME Q75 TEEEM Q99 BLAAN Q69 RICCS EWC |
| Aircraft | DC6/M-SDE1FGHIRWXY/S |
Departure
| Time | 2026-04-30 13:06 |
|---|---|
| Airport | Lakeland Linder International Airport (KLAL) |
Arrival
| Time | N/A |
|---|---|
| Airport | KD79 |
| Time | Latitude | Longitude | Altitude | Speed | Heading |
|---|---|---|---|---|---|
| 2026-04-30 12:55 | 27.99136 | -82.03459 | 148 ft | 0 kts | 111° |
| 2026-04-30 13:00 | 27.99135 | -82.03457 | 148 ft | 1 kts | 111° |
| 2026-04-30 13:00 | 27.99128 | -82.03437 | 148 ft | 4 kts | 111° |
| 2026-04-30 13:00 | 27.99117 | -82.03392 | 148 ft | 7 kts | 94° |
| 2026-04-30 13:01 | 27.99116 | -82.03327 | 148 ft | 9 kts | 90° |
| 2026-04-30 13:01 | 27.99111 | -82.03254 | 148 ft | 9 kts | 121° |
| 2026-04-30 13:01 | 27.99062 | -82.03237 | 148 ft | 8 kts | 189° |
| 2026-04-30 13:01 | 27.99032 | -82.03264 | 148 ft | 5 kts | 262° |
| 2026-04-30 13:02 | 27.99028 | -82.03310 | 148 ft | 7 kts | 264° |
| 2026-04-30 13:02 | 27.99021 | -82.03341 | 148 ft | 0 kts | 235° |
| 2026-04-30 13:02 | 27.99020 | -82.03342 | 148 ft | 1 kts | 235° |
| 2026-04-30 13:02 | 27.99019 | -82.03343 | 148 ft | 0 kts | 232° |
| 2026-04-30 13:03 | 27.99016 | -82.03346 | 148 ft | 1 kts | 214° |
| 2026-04-30 13:03 | 27.98998 | -82.03352 | 148 ft | 4 kts | 182° |
| 2026-04-30 13:04 | 27.98955 | -82.03349 | 149 ft | 8 kts | 176° |
| 2026-04-30 13:04 | 27.98920 | -82.03338 | 149 ft | 1 kts | 99° |
| 2026-04-30 13:04 | 27.98922 | -82.03320 | 149 ft | 12 kts | 86° |
| 2026-04-30 13:04 | 27.98925 | -82.03048 | 148 ft | 58 kts | 90° |
| 2026-04-30 13:05 | 27.98922 | -82.02437 | 148 ft | 95 kts | 90° |
| 2026-04-30 13:05 | 27.98944 | -82.01595 | 174 ft | 118 kts | 91° |
| 2026-04-30 13:05 | 27.98947 | -82.00597 | 240 ft | 135 kts | 92° |
| 2026-04-30 13:06 | 27.99607 | -81.98401 | 366 ft | 168 kts | 53° |
| 2026-04-30 13:06 | 28.00411 | -81.97448 | 731 ft | 159 kts | 39° |
| 2026-04-30 13:06 | 28.01477 | -81.97117 | 883 ft | 168 kts | 348° |
| 2026-04-30 13:06 | 28.02522 | -81.97680 | 1085 ft | 169 kts | 326° |
| 2026-04-30 13:07 | 28.03548 | -81.98373 | 1268 ft | 175 kts | 325° |
| 2026-04-30 13:07 | 28.04650 | -81.99007 | 1448 ft | 183 kts | 338° |
| 2026-04-30 13:07 | 28.05923 | -81.99288 | 1633 ft | 190 kts | 351° |
| 2026-04-30 13:07 | 28.07270 | -81.99306 | 1834 ft | 196 kts | 358° |
| 2026-04-30 13:08 | 28.08632 | -81.99174 | 2070 ft | 198 kts | 7° |
| 2026-04-30 13:08 | 28.09962 | -81.98830 | 2303 ft | 199 kts | 11° |
| 2026-04-30 13:08 | 28.11257 | -81.98292 | 2521 ft | 201 kts | 32° |
| 2026-04-30 13:08 | 28.12372 | -81.97341 | 2767 ft | 201 kts | 38° |
| 2026-04-30 13:09 | 28.13430 | -81.96314 | 3003 ft | 200 kts | 42° |
| 2026-04-30 13:09 | 28.14362 | -81.95144 | 3214 ft | 200 kts | 48° |
| 2026-04-30 13:09 | 28.15261 | -81.93936 | 3425 ft | 201 kts | 49° |
| 2026-04-30 13:09 | 28.16155 | -81.92715 | 3635 ft | 202 kts | 48° |
| 2026-04-30 13:10 | 28.17141 | -81.91610 | 3820 ft | 199 kts | 26° |
| 2026-04-30 13:10 | 28.18454 | -81.91359 | 4025 ft | 190 kts | 343° |
| 2026-04-30 13:10 | 28.19639 | -81.91913 | 4265 ft | 183 kts | 329° |
| 2026-04-30 13:10 | 28.20794 | -81.92529 | 4504 ft | 183 kts | 326° |
| 2026-04-30 13:11 | 28.21925 | -81.93177 | 4721 ft | 182 kts | 326° |
| 2026-04-30 13:11 | 28.23058 | -81.93830 | 4936 ft | 183 kts | 326° |
| 2026-04-30 13:11 | 28.24193 | -81.94487 | 5157 ft | 184 kts | 327° |
| 2026-04-30 13:11 | 28.25336 | -81.95143 | 5375 ft | 185 kts | 327° |
| 2026-04-30 13:12 | 28.26486 | -81.95797 | 5590 ft | 185 kts | 328° |
| 2026-04-30 13:12 | 28.27642 | -81.96450 | 5808 ft | 186 kts | 329° |
| 2026-04-30 13:12 | 28.28800 | -81.97108 | 6029 ft | 186 kts | 328° |
| 2026-04-30 13:13 | 28.31112 | -81.98422 | 6486 ft | 186 kts | 328° |
| 2026-04-30 13:13 | 28.32274 | -81.99074 | 6688 ft | 187 kts | 328° |
| 2026-04-30 13:13 | 28.34610 | -82.00403 | 7105 ft | 188 kts | 327° |
| 2026-04-30 13:14 | 28.35778 | -82.01071 | 7312 ft | 188 kts | 327° |
| 2026-04-30 13:14 | 28.36945 | -82.01737 | 7529 ft | 188 kts | 327° |
| 2026-04-30 13:14 | 28.39283 | -82.03068 | 7959 ft | 188 kts | 327° |
| 2026-04-30 13:15 | 28.40452 | -82.03734 | 8176 ft | 188 kts | 327° |
| 2026-04-30 13:15 | 28.42773 | -82.05059 | 8611 ft | 188 kts | 326° |
| 2026-04-30 13:15 | 28.43954 | -82.05729 | 8844 ft | 187 kts | 326° |
| 2026-04-30 13:16 | 28.45099 | -82.06383 | 9059 ft | 186 kts | 326° |
| 2026-04-30 13:16 | 28.46252 | -82.07043 | 9277 ft | 185 kts | 326° |
| 2026-04-30 13:16 | 28.47396 | -82.07697 | 9504 ft | 184 kts | 326° |
| 2026-04-30 13:17 | 28.49679 | -82.09000 | 9957 ft | 183 kts | 325° |
| 2026-04-30 13:17 | 28.50819 | -82.09649 | 10163 ft | 183 kts | 325° |
| 2026-04-30 13:17 | 28.53102 | -82.10955 | 10581 ft | 184 kts | 325° |
| 2026-04-30 13:18 | 28.54245 | -82.11607 | 10789 ft | 184 kts | 325° |
| 2026-04-30 13:18 | 28.56534 | -82.12916 | 11209 ft | 183 kts | 325° |
| 2026-04-30 13:18 | 28.57669 | -82.13566 | 11425 ft | 182 kts | 325° |
| 2026-04-30 13:19 | 28.58800 | -82.14211 | 11640 ft | 181 kts | 325° |
| 2026-04-30 13:19 | 28.59925 | -82.14854 | 11868 ft | 180 kts | 325° |
| 2026-04-30 13:19 | 28.61042 | -82.15495 | 12093 ft | 179 kts | 325° |
| 2026-04-30 13:19 | 28.62152 | -82.16130 | 12303 ft | 178 kts | 324° |
| 2026-04-30 13:20 | 28.63255 | -82.16760 | 12530 ft | 176 kts | 324° |
| 2026-04-30 13:20 | 28.64340 | -82.17383 | 12751 ft | 174 kts | 324° |
| 2026-04-30 13:20 | 28.65411 | -82.17996 | 12981 ft | 171 kts | 324° |
| 2026-04-30 13:20 | 28.66462 | -82.18598 | 13210 ft | 167 kts | 324° |
| 2026-04-30 13:21 | 28.67492 | -82.19189 | 13434 ft | 164 kts | 324° |
| 2026-04-30 13:21 | 28.68501 | -82.19766 | 13663 ft | 160 kts | 323° |
| 2026-04-30 13:21 | 28.69488 | -82.20334 | 13848 ft | 158 kts | 323° |
| 2026-04-30 13:22 | 28.71431 | -82.21452 | 14093 ft | 158 kts | 323° |
| 2026-04-30 13:22 | 28.72423 | -82.22023 | 14152 ft | 162 kts | 323° |
| 2026-04-30 13:22 | 28.74493 | -82.23202 | 14278 ft | 171 kts | 323° |
| 2026-04-30 13:23 | 28.75564 | -82.23820 | 14328 ft | 175 kts | 323° |
| 2026-04-30 13:23 | 28.77779 | -82.25093 | 14418 ft | 183 kts | 324° |
| 2026-04-30 13:24 | 28.80100 | -82.26427 | 14503 ft | 190 kts | 324° |
| 2026-04-30 13:24 | 28.82494 | -82.27802 | 14596 ft | 195 kts | 324° |
| 2026-04-30 13:25 | 28.84944 | -82.29212 | 14688 ft | 200 kts | 325° |
| 2026-04-30 13:25 | 28.87452 | -82.30655 | 14773 ft | 204 kts | 325° |
| 2026-04-30 13:26 | 28.91283 | -82.32861 | 14918 ft | 207 kts | 325° |
| 2026-04-30 13:26 | 28.93865 | -82.34349 | 15017 ft | 209 kts | 325° |
| 2026-04-30 13:27 | 28.96446 | -82.35837 | 15200 ft | 206 kts | 325° |
| 2026-04-30 13:28 | 29.00224 | -82.38016 | 15551 ft | 199 kts | 325° |
| 2026-04-30 13:28 | 29.02676 | -82.39434 | 15795 ft | 195 kts | 325° |
| 2026-04-30 13:28 | 29.03883 | -82.40129 | 15933 ft | 193 kts | 324° |
| 2026-04-30 13:29 | 29.06245 | -82.41495 | 16170 ft | 188 kts | 324° |
| 2026-04-30 13:29 | 29.08554 | -82.42831 | 16405 ft | 184 kts | 324° |
| 2026-04-30 13:30 | 29.12022 | -82.44839 | 16495 ft | 191 kts | 324° |
| 2026-04-30 13:31 | 29.14431 | -82.46232 | 16500 ft | 197 kts | 324° |
| 2026-04-30 13:31 | 29.18245 | -82.48440 | 16515 ft | 210 kts | 325° |
| 2026-04-30 13:32 | 29.20848 | -82.49949 | 16511 ft | 210 kts | 325° |
| 2026-04-30 13:32 | 29.23450 | -82.51459 | 16500 ft | 209 kts | 325° |
| 2026-04-30 13:33 | 29.26295 | -82.52352 | 16499 ft | 218 kts | 344° |
| 2026-04-30 13:33 | 29.29340 | -82.52642 | 16498 ft | 223 kts | 350° |
| 2026-04-30 13:34 | 29.30897 | -82.52620 | 16503 ft | 224 kts | 351° |
| 2026-04-30 13:34 | 29.35579 | -82.52507 | 16507 ft | 226 kts | 350° |
| 2026-04-30 13:35 | 29.37155 | -82.52475 | 16504 ft | 227 kts | 350° |
| 2026-04-30 13:35 | 29.40319 | -82.52406 | 16494 ft | 227 kts | 350° |
| 2026-04-30 13:36 | 29.42972 | -82.52349 | 16497 ft | 228 kts | 350° |
| 2026-04-30 13:36 | 29.44559 | -82.52313 | 16498 ft | 228 kts | 350° |
| 2026-04-30 13:36 | 29.47741 | -82.52244 | 16496 ft | 229 kts | 350° |
| 2026-04-30 13:37 | 29.49334 | -82.52209 | 16496 ft | 229 kts | 350° |
| 2026-04-30 13:37 | 29.52521 | -82.52138 | 16495 ft | 229 kts | 350° |
| 2026-04-30 13:38 | 29.55715 | -82.52070 | 16500 ft | 230 kts | 350° |
| 2026-04-30 13:38 | 29.57317 | -82.52034 | 16499 ft | 230 kts | 350° |
| 2026-04-30 13:38 | 29.60520 | -82.51964 | 16497 ft | 230 kts | 350° |
| 2026-04-30 13:39 | 29.63700 | -82.51890 | 16502 ft | 230 kts | 349° |
| 2026-04-30 13:39 | 29.66912 | -82.51825 | 16496 ft | 231 kts | 349° |
| 2026-04-30 13:40 | 29.68516 | -82.51788 | 16500 ft | 231 kts | 349° |
| 2026-04-30 13:40 | 29.70124 | -82.51754 | 16499 ft | 231 kts | 349° |
| 2026-04-30 13:40 | 29.71733 | -82.51719 | 16497 ft | 231 kts | 349° |
| 2026-04-30 13:40 | 29.73344 | -82.51683 | 16495 ft | 232 kts | 349° |
| 2026-04-30 13:41 | 29.74956 | -82.51648 | 16489 ft | 232 kts | 349° |
| 2026-04-30 13:41 | 29.76568 | -82.51612 | 16490 ft | 232 kts | 349° |
| 2026-04-30 13:41 | 29.78180 | -82.51575 | 16490 ft | 232 kts | 349° |
| 2026-04-30 13:41 | 29.79790 | -82.51540 | 16494 ft | 232 kts | 349° |
| 2026-04-30 13:42 | 29.81402 | -82.51506 | 16494 ft | 232 kts | 349° |
| 2026-04-30 13:42 | 29.83012 | -82.51470 | 16496 ft | 231 kts | 349° |
| 2026-04-30 13:42 | 29.86233 | -82.51399 | 16499 ft | 232 kts | 349° |
| 2026-04-30 13:43 | 29.87847 | -82.51363 | 16493 ft | 232 kts | 349° |
| 2026-04-30 13:43 | 29.89458 | -82.51328 | 16495 ft | 232 kts | 349° |
| 2026-04-30 13:43 | 29.91070 | -82.51289 | 16507 ft | 232 kts | 349° |
| 2026-04-30 13:43 | 29.92683 | -82.51255 | 16503 ft | 232 kts | 348° |
| 2026-04-30 13:44 | 29.94299 | -82.51222 | 16503 ft | 232 kts | 349° |
| 2026-04-30 13:44 | 29.95913 | -82.51187 | 16505 ft | 232 kts | 349° |
| 2026-04-30 13:44 | 29.97528 | -82.51151 | 16502 ft | 232 kts | 349° |
| 2026-04-30 13:44 | 29.99142 | -82.51115 | 16498 ft | 232 kts | 349° |
| 2026-04-30 13:45 | 30.02365 | -82.51044 | 16501 ft | 232 kts | 349° |
| 2026-04-30 13:45 | 30.03978 | -82.51007 | 16502 ft | 232 kts | 349° |
| 2026-04-30 13:45 | 30.05591 | -82.50972 | 16501 ft | 232 kts | 349° |
| 2026-04-30 13:46 | 30.07203 | -82.50936 | 16502 ft | 232 kts | 349° |
| 2026-04-30 13:46 | 30.08816 | -82.50902 | 16499 ft | 232 kts | 349° |
| 2026-04-30 13:46 | 30.10430 | -82.50865 | 16501 ft | 232 kts | 349° |
| 2026-04-30 13:46 | 30.12039 | -82.50829 | 16499 ft | 231 kts | 349° |
| 2026-04-30 13:47 | 30.13650 | -82.50793 | 16497 ft | 231 kts | 349° |
| 2026-04-30 13:47 | 30.15259 | -82.50758 | 16501 ft | 231 kts | 349° |
| 2026-04-30 13:47 | 30.16867 | -82.50721 | 16500 ft | 231 kts | 349° |
| 2026-04-30 13:47 | 30.18479 | -82.50664 | 16521 ft | 233 kts | 351° |
| 2026-04-30 13:48 | 30.20104 | -82.50468 | 16513 ft | 236 kts | 354° |
| 2026-04-30 13:48 | 30.21739 | -82.50243 | 16506 ft | 237 kts | 354° |
| 2026-04-30 13:48 | 30.23377 | -82.50018 | 16503 ft | 237 kts | 354° |
| 2026-04-30 13:48 | 30.25012 | -82.49795 | 16532 ft | 237 kts | 354° |
| 2026-04-30 13:49 | 30.26629 | -82.49574 | 16527 ft | 237 kts | 354° |
| 2026-04-30 13:49 | 30.28289 | -82.49347 | 16529 ft | 237 kts | 354° |
| 2026-04-30 13:49 | 30.29907 | -82.49126 | 16541 ft | 237 kts | 354° |
| 2026-04-30 13:49 | 30.31569 | -82.48899 | 16539 ft | 237 kts | 354° |
| 2026-04-30 13:50 | 30.33205 | -82.48677 | 16544 ft | 237 kts | 354° |
| 2026-04-30 13:50 | 30.36465 | -82.48231 | 16542 ft | 238 kts | 354° |
| 2026-04-30 13:50 | 30.38132 | -82.48003 | 16544 ft | 238 kts | 354° |
| 2026-04-30 13:51 | 30.39778 | -82.47779 | 16541 ft | 239 kts | 354° |
| 2026-04-30 13:51 | 30.41407 | -82.47556 | 16556 ft | 239 kts | 354° |
| 2026-04-30 13:51 | 30.43058 | -82.47331 | 16554 ft | 239 kts | 354° |
| 2026-04-30 13:51 | 30.44708 | -82.47105 | 16550 ft | 239 kts | 354° |
| 2026-04-30 13:52 | 30.46358 | -82.46880 | 16552 ft | 238 kts | 354° |
| 2026-04-30 13:52 | 30.48004 | -82.46654 | 16553 ft | 238 kts | 354° |
| 2026-04-30 13:52 | 30.49647 | -82.46429 | 16554 ft | 238 kts | 354° |
| 2026-04-30 13:52 | 30.51289 | -82.46205 | 16556 ft | 237 kts | 354° |
| 2026-04-30 13:53 | 30.52929 | -82.45981 | 16562 ft | 237 kts | 354° |
| 2026-04-30 13:53 | 30.54568 | -82.45756 | 16559 ft | 237 kts | 354° |
| 2026-04-30 13:53 | 30.56206 | -82.45531 | 16559 ft | 237 kts | 354° |
| 2026-04-30 13:53 | 30.57843 | -82.45307 | 16560 ft | 237 kts | 354° |
| 2026-04-30 13:54 | 30.59479 | -82.45083 | 16563 ft | 237 kts | 354° |
| 2026-04-30 13:54 | 30.61114 | -82.44858 | 16562 ft | 237 kts | 354° |
| 2026-04-30 13:54 | 30.62750 | -82.44634 | 16563 ft | 237 kts | 354° |
| 2026-04-30 13:54 | 30.64384 | -82.44410 | 16563 ft | 237 kts | 354° |
| 2026-04-30 13:55 | 30.66019 | -82.44185 | 16563 ft | 237 kts | 354° |
| 2026-04-30 13:55 | 30.67654 | -82.43960 | 16563 ft | 236 kts | 354° |
| 2026-04-30 13:55 | 30.69290 | -82.43668 | 16562 ft | 239 kts | 358° |
| 2026-04-30 13:55 | 30.70928 | -82.43306 | 16563 ft | 240 kts | 359° |
| 2026-04-30 13:56 | 30.72561 | -82.42810 | 16562 ft | 244 kts | 4° |
| 2026-04-30 13:56 | 30.74187 | -82.42236 | 16563 ft | 244 kts | 5° |
| 2026-04-30 13:56 | 30.75817 | -82.41656 | 16551 ft | 245 kts | 6° |
| 2026-04-30 13:56 | 30.77445 | -82.41068 | 16547 ft | 245 kts | 6° |
| 2026-04-30 13:57 | 30.79074 | -82.40488 | 16553 ft | 244 kts | 6° |
| 2026-04-30 13:57 | 30.80701 | -82.39911 | 16566 ft | 245 kts | 5° |
| 2026-04-30 13:57 | 30.82330 | -82.39331 | 16566 ft | 245 kts | 5° |
| 2026-04-30 13:57 | 30.83963 | -82.38750 | 16564 ft | 246 kts | 5° |
| 2026-04-30 13:58 | 30.85600 | -82.38169 | 16549 ft | 246 kts | 5° |
| 2026-04-30 13:58 | 30.88855 | -82.37010 | 16550 ft | 246 kts | 5° |
| 2026-04-30 13:58 | 30.90518 | -82.36418 | 16550 ft | 247 kts | 5° |
| 2026-04-30 13:59 | 30.92139 | -82.35841 | 16552 ft | 247 kts | 5° |
| 2026-04-30 13:59 | 30.93785 | -82.35252 | 16537 ft | 247 kts | 5° |
| 2026-04-30 13:59 | 30.95432 | -82.34666 | 16532 ft | 247 kts | 5° |
| 2026-04-30 13:59 | 30.97076 | -82.34080 | 16522 ft | 247 kts | 5° |
| 2026-04-30 14:00 | 30.98724 | -82.33493 | 16517 ft | 247 kts | 5° |
| 2026-04-30 14:00 | 31.02017 | -82.32316 | 16525 ft | 247 kts | 6° |
| 2026-04-30 14:00 | 31.03664 | -82.31734 | 16513 ft | 248 kts | 7° |
| 2026-04-30 14:01 | 31.05313 | -82.31139 | 16508 ft | 248 kts | 7° |
| 2026-04-30 14:01 | 31.06964 | -82.30548 | 16502 ft | 248 kts | 7° |
| 2026-04-30 14:01 | 31.08617 | -82.29957 | 16485 ft | 249 kts | 7° |
| 2026-04-30 14:01 | 31.10272 | -82.29364 | 16483 ft | 248 kts | 6° |
| 2026-04-30 14:02 | 31.11922 | -82.28773 | 16494 ft | 248 kts | 6° |
| 2026-04-30 14:02 | 31.13575 | -82.28183 | 16495 ft | 248 kts | 6° |
| 2026-04-30 14:02 | 31.15227 | -82.27591 | 16495 ft | 248 kts | 7° |
| 2026-04-30 14:02 | 31.16880 | -82.26999 | 16493 ft | 248 kts | 7° |
| 2026-04-30 14:03 | 31.18532 | -82.26406 | 16488 ft | 248 kts | 6° |
| 2026-04-30 14:03 | 31.20185 | -82.25814 | 16488 ft | 248 kts | 7° |
| 2026-04-30 14:03 | 31.21837 | -82.25223 | 16488 ft | 249 kts | 7° |
| 2026-04-30 14:03 | 31.23492 | -82.24629 | 16488 ft | 249 kts | 7° |
| 2026-04-30 14:04 | 31.25144 | -82.24035 | 16488 ft | 249 kts | 6° |
| 2026-04-30 14:04 | 31.26800 | -82.23441 | 16488 ft | 249 kts | 6° |
| 2026-04-30 14:04 | 31.28456 | -82.22846 | 16489 ft | 249 kts | 7° |
| 2026-04-30 14:04 | 31.30113 | -82.22261 | 16494 ft | 249 kts | 8° |
| 2026-04-30 14:05 | 31.31770 | -82.21657 | 16491 ft | 250 kts | 8° |
| 2026-04-30 14:05 | 31.33430 | -82.21057 | 16485 ft | 250 kts | 8° |
| 2026-04-30 14:05 | 31.35088 | -82.20460 | 16482 ft | 250 kts | 8° |
| 2026-04-30 14:05 | 31.36750 | -82.19863 | 16479 ft | 250 kts | 8° |
| 2026-04-30 14:06 | 31.38410 | -82.19264 | 16478 ft | 249 kts | 8° |
| 2026-04-30 14:06 | 31.41726 | -82.18071 | 16474 ft | 249 kts | 8° |
| 2026-04-30 14:07 | 31.45042 | -82.16877 | 16477 ft | 249 kts | 8° |
| 2026-04-30 14:07 | 31.46699 | -82.16279 | 16480 ft | 249 kts | 8° |
| 2026-04-30 14:07 | 31.48354 | -82.15681 | 16480 ft | 249 kts | 8° |
| 2026-04-30 14:08 | 31.51662 | -82.14488 | 16492 ft | 248 kts | 8° |
| 2026-04-30 14:08 | 31.53314 | -82.13891 | 16496 ft | 248 kts | 8° |
| 2026-04-30 14:08 | 31.56597 | -82.12711 | 16516 ft | 248 kts | 9° |
| 2026-04-30 14:09 | 31.58247 | -82.12112 | 16508 ft | 248 kts | 9° |
| 2026-04-30 14:09 | 31.59896 | -82.11511 | 16504 ft | 248 kts | 9° |
| 2026-04-30 14:09 | 31.63194 | -82.10317 | 16502 ft | 248 kts | 9° |
| 2026-04-30 14:10 | 31.64843 | -82.09720 | 16483 ft | 247 kts | 9° |
| 2026-04-30 14:10 | 31.66486 | -82.09125 | 16484 ft | 247 kts | 9° |
| 2026-04-30 14:10 | 31.68130 | -82.08529 | 16484 ft | 247 kts | 9° |
| 2026-04-30 14:10 | 31.69773 | -82.07935 | 16484 ft | 247 kts | 9° |
| 2026-04-30 14:11 | 31.71414 | -82.07339 | 16484 ft | 247 kts | 9° |
| 2026-04-30 14:11 | 31.73058 | -82.06743 | 16480 ft | 247 kts | 9° |
| 2026-04-30 14:11 | 31.74701 | -82.06147 | 16480 ft | 247 kts | 9° |
| 2026-04-30 14:11 | 31.76339 | -82.05552 | 16480 ft | 247 kts | 9° |
| 2026-04-30 14:12 | 31.77982 | -82.04956 | 16483 ft | 247 kts | 9° |
| 2026-04-30 14:12 | 31.79620 | -82.04361 | 16483 ft | 247 kts | 9° |
| 2026-04-30 14:12 | 31.81262 | -82.03763 | 16484 ft | 247 kts | 9° |
| 2026-04-30 14:12 | 31.82346 | -82.03369 | 16483 ft | 246 kts | 9° |
| 2026-04-30 14:13 | 31.84539 | -82.02585 | 16492 ft | 246 kts | 9° |
| 2026-04-30 14:13 | 31.86175 | -82.01989 | 16488 ft | 247 kts | 10° |
| 2026-04-30 14:13 | 31.87812 | -82.01373 | 16487 ft | 247 kts | 10° |
| 2026-04-30 14:13 | 31.89449 | -82.00761 | 16485 ft | 246 kts | 10° |
| 2026-04-30 14:14 | 31.91079 | -82.00152 | 16487 ft | 246 kts | 10° |
| 2026-04-30 14:14 | 31.92714 | -81.99542 | 16487 ft | 246 kts | 10° |
| 2026-04-30 14:14 | 31.94349 | -81.98934 | 16489 ft | 247 kts | 10° |
| 2026-04-30 14:14 | 31.95987 | -81.98322 | 16489 ft | 247 kts | 10° |
| 2026-04-30 14:15 | 31.97628 | -81.97709 | 16488 ft | 248 kts | 10° |
| 2026-04-30 14:15 | 31.99272 | -81.97096 | 16487 ft | 248 kts | 10° |
| 2026-04-30 14:15 | 32.00895 | -81.96489 | 16487 ft | 249 kts | 10° |
| 2026-04-30 14:15 | 32.02543 | -81.95873 | 16498 ft | 248 kts | 10° |
| 2026-04-30 14:16 | 32.04210 | -81.95250 | 16495 ft | 248 kts | 10° |
| 2026-04-30 14:16 | 32.05836 | -81.94642 | 16490 ft | 249 kts | 10° |
| 2026-04-30 14:16 | 32.07485 | -81.94025 | 16486 ft | 249 kts | 10° |
| 2026-04-30 14:16 | 32.09137 | -81.93406 | 16490 ft | 249 kts | 10° |
| 2026-04-30 14:17 | 32.10788 | -81.92788 | 16483 ft | 249 kts | 11° |
| 2026-04-30 14:17 | 32.12438 | -81.92155 | 16482 ft | 249 kts | 12° |
| 2026-04-30 14:17 | 32.14068 | -81.91457 | 16474 ft | 249 kts | 13° |
| 2026-04-30 14:17 | 32.15679 | -81.90699 | 16475 ft | 251 kts | 18° |
| 2026-04-30 14:18 | 32.17250 | -81.89791 | 16480 ft | 251 kts | 20° |
| 2026-04-30 14:18 | 32.18817 | -81.88871 | 16480 ft | 251 kts | 20° |
| 2026-04-30 14:18 | 32.21949 | -81.87028 | 16480 ft | 252 kts | 20° |
| 2026-04-30 14:19 | 32.25087 | -81.85186 | 16483 ft | 252 kts | 20° |
| 2026-04-30 14:19 | 32.26658 | -81.84263 | 16490 ft | 253 kts | 20° |
| 2026-04-30 14:19 | 32.28233 | -81.83339 | 16494 ft | 253 kts | 20° |
| 2026-04-30 14:20 | 32.29811 | -81.82411 | 16489 ft | 253 kts | 20° |
| 2026-04-30 14:20 | 32.31388 | -81.81484 | 16486 ft | 253 kts | 20° |
| 2026-04-30 14:20 | 32.34542 | -81.79630 | 16473 ft | 253 kts | 20° |
| 2026-04-30 14:21 | 32.36117 | -81.78700 | 16494 ft | 252 kts | 19° |
| 2026-04-30 14:21 | 32.37156 | -81.78090 | 16484 ft | 252 kts | 19° |
| 2026-04-30 14:21 | 32.40282 | -81.76250 | 16473 ft | 250 kts | 19° |
| 2026-04-30 14:22 | 32.41835 | -81.75335 | 16469 ft | 249 kts | 19° |
| 2026-04-30 14:22 | 32.44918 | -81.73517 | 16468 ft | 246 kts | 19° |
| 2026-04-30 14:22 | 32.46444 | -81.72619 | 16469 ft | 244 kts | 19° |
| 2026-04-30 14:23 | 32.49464 | -81.70834 | 16471 ft | 241 kts | 19° |
| 2026-04-30 14:23 | 32.52451 | -81.69071 | 16469 ft | 238 kts | 19° |
| 2026-04-30 14:24 | 32.55403 | -81.67326 | 16472 ft | 236 kts | 19° |
| 2026-04-30 14:24 | 32.56869 | -81.66458 | 16486 ft | 235 kts | 19° |
| 2026-04-30 14:25 | 32.59777 | -81.64743 | 16475 ft | 233 kts | 19° |
| 2026-04-30 14:25 | 32.62646 | -81.63030 | 16490 ft | 229 kts | 18° |
| 2026-04-30 14:26 | 32.65488 | -81.61355 | 16487 ft | 227 kts | 18° |
| 2026-04-30 14:26 | 32.66896 | -81.60519 | 16490 ft | 225 kts | 18° |
| 2026-04-30 14:26 | 32.69682 | -81.58866 | 16489 ft | 223 kts | 18° |
| 2026-04-30 14:27 | 32.71047 | -81.58057 | 16490 ft | 222 kts | 18° |
| 2026-04-30 14:27 | 32.72423 | -81.57238 | 16490 ft | 221 kts | 18° |
| 2026-04-30 14:27 | 32.73795 | -81.56424 | 16489 ft | 220 kts | 18° |
| 2026-04-30 14:28 | 32.76519 | -81.54805 | 16471 ft | 218 kts | 18° |
| 2026-04-30 14:28 | 32.77872 | -81.54000 | 16468 ft | 217 kts | 17° |
| 2026-04-30 14:28 | 32.79216 | -81.53201 | 16472 ft | 216 kts | 17° |
| 2026-04-30 14:28 | 32.80556 | -81.52403 | 16470 ft | 215 kts | 17° |
| 2026-04-30 14:29 | 32.83227 | -81.50814 | 16477 ft | 214 kts | 17° |
| 2026-04-30 14:29 | 32.85893 | -81.49225 | 16476 ft | 214 kts | 17° |
| 2026-04-30 14:30 | 32.89907 | -81.46831 | 16480 ft | 216 kts | 17° |
| 2026-04-30 14:31 | 32.92611 | -81.45220 | 16483 ft | 218 kts | 17° |
| 2026-04-30 14:31 | 32.95346 | -81.43586 | 16478 ft | 221 kts | 17° |
| 2026-04-30 14:31 | 32.96726 | -81.42761 | 16482 ft | 223 kts | 18° |
| 2026-04-30 14:32 | 32.99521 | -81.41089 | 16479 ft | 226 kts | 17° |
| 2026-04-30 14:32 | 33.00932 | -81.40245 | 16491 ft | 227 kts | 18° |
| 2026-04-30 14:32 | 33.02349 | -81.39397 | 16499 ft | 229 kts | 18° |
| 2026-04-30 14:33 | 33.03777 | -81.38543 | 16497 ft | 230 kts | 18° |
| 2026-04-30 14:33 | 33.06658 | -81.36817 | 16497 ft | 233 kts | 18° |
| 2026-04-30 14:33 | 33.08114 | -81.35945 | 16497 ft | 235 kts | 18° |
| 2026-04-30 14:34 | 33.09573 | -81.35070 | 16499 ft | 236 kts | 18° |
| 2026-04-30 14:34 | 33.11051 | -81.34184 | 16498 ft | 237 kts | 18° |
| 2026-04-30 14:34 | 33.12528 | -81.33298 | 16498 ft | 238 kts | 18° |
| 2026-04-30 14:34 | 33.13991 | -81.32419 | 16500 ft | 239 kts | 18° |
| 2026-04-30 14:35 | 33.16970 | -81.30631 | 16501 ft | 240 kts | 18° |
| 2026-04-30 14:35 | 33.18466 | -81.29733 | 16501 ft | 241 kts | 18° |
| 2026-04-30 14:35 | 33.19967 | -81.28830 | 16504 ft | 242 kts | 18° |
| 2026-04-30 14:36 | 33.21472 | -81.27925 | 16500 ft | 243 kts | 18° |
| 2026-04-30 14:36 | 33.22983 | -81.27017 | 16500 ft | 243 kts | 18° |
| 2026-04-30 14:36 | 33.24495 | -81.26108 | 16502 ft | 244 kts | 18° |
| 2026-04-30 14:36 | 33.26009 | -81.25194 | 16500 ft | 244 kts | 18° |
| 2026-04-30 14:37 | 33.27527 | -81.24280 | 16499 ft | 245 kts | 18° |
| 2026-04-30 14:37 | 33.29048 | -81.23364 | 16501 ft | 245 kts | 18° |
| 2026-04-30 14:37 | 33.30568 | -81.22448 | 16502 ft | 245 kts | 18° |
| 2026-04-30 14:37 | 33.32096 | -81.21528 | 16502 ft | 246 kts | 18° |
| 2026-04-30 14:38 | 33.33623 | -81.20606 | 16498 ft | 246 kts | 18° |
| 2026-04-30 14:38 | 33.35156 | -81.19681 | 16499 ft | 247 kts | 18° |
| 2026-04-30 14:38 | 33.36690 | -81.18755 | 16496 ft | 247 kts | 18° |
| 2026-04-30 14:38 | 33.38224 | -81.17825 | 16504 ft | 247 kts | 18° |
| 2026-04-30 14:39 | 33.39757 | -81.16900 | 16494 ft | 247 kts | 18° |
| 2026-04-30 14:39 | 33.41291 | -81.15977 | 16486 ft | 246 kts | 18° |
| 2026-04-30 14:39 | 33.42816 | -81.15055 | 16484 ft | 246 kts | 18° |
| 2026-04-30 14:40 | 33.45867 | -81.13208 | 16485 ft | 245 kts | 18° |
| 2026-04-30 14:40 | 33.47390 | -81.12287 | 16488 ft | 246 kts | 18° |
| 2026-04-30 14:40 | 33.48916 | -81.11363 | 16485 ft | 246 kts | 18° |
| 2026-04-30 14:40 | 33.50443 | -81.10437 | 16483 ft | 246 kts | 18° |
| 2026-04-30 14:41 | 33.51968 | -81.09512 | 16483 ft | 246 kts | 18° |
| 2026-04-30 14:41 | 33.53495 | -81.08588 | 16482 ft | 246 kts | 18° |
| 2026-04-30 14:41 | 33.55024 | -81.07660 | 16486 ft | 246 kts | 18° |
| 2026-04-30 14:41 | 33.56548 | -81.06734 | 16484 ft | 246 kts | 18° |
| 2026-04-30 14:42 | 33.58073 | -81.05809 | 16485 ft | 246 kts | 18° |
| 2026-04-30 14:42 | 33.59599 | -81.04883 | 16480 ft | 246 kts | 18° |
| 2026-04-30 14:42 | 33.61105 | -81.03969 | 16480 ft | 246 kts | 18° |
| 2026-04-30 14:42 | 33.62630 | -81.03041 | 16482 ft | 246 kts | 18° |
| 2026-04-30 14:43 | 33.64155 | -81.02108 | 16493 ft | 247 kts | 17° |
| 2026-04-30 14:43 | 33.65687 | -81.01181 | 16491 ft | 247 kts | 17° |
| 2026-04-30 14:43 | 33.67228 | -81.00246 | 16493 ft | 248 kts | 17° |
| 2026-04-30 14:43 | 33.68766 | -80.99309 | 16487 ft | 248 kts | 17° |
| 2026-04-30 14:44 | 33.70308 | -80.98369 | 16487 ft | 249 kts | 17° |
| 2026-04-30 14:44 | 33.71852 | -80.97428 | 16483 ft | 249 kts | 17° |
| 2026-04-30 14:44 | 33.73398 | -80.96487 | 16488 ft | 249 kts | 17° |
| 2026-04-30 14:44 | 33.74943 | -80.95547 | 16486 ft | 249 kts | 17° |
| 2026-04-30 14:45 | 33.76489 | -80.94602 | 16487 ft | 249 kts | 17° |
| 2026-04-30 14:45 | 33.78032 | -80.93659 | 16488 ft | 249 kts | 17° |
| 2026-04-30 14:45 | 33.79574 | -80.92720 | 16494 ft | 249 kts | 17° |
| 2026-04-30 14:45 | 33.81120 | -80.91775 | 16494 ft | 249 kts | 17° |
| 2026-04-30 14:46 | 33.82666 | -80.90830 | 16486 ft | 249 kts | 18° |
| 2026-04-30 14:46 | 33.84237 | -80.90026 | 16485 ft | 243 kts | 9° |
| 2026-04-30 14:46 | 33.85833 | -80.89422 | 16481 ft | 239 kts | 6° |
| 2026-04-30 14:46 | 33.87435 | -80.88899 | 16485 ft | 237 kts | 3° |
| 2026-04-30 14:47 | 33.89037 | -80.88559 | 16485 ft | 233 kts | 358° |
| 2026-04-30 14:47 | 33.90644 | -80.88270 | 16485 ft | 234 kts | 358° |
| 2026-04-30 14:47 | 33.92254 | -80.87986 | 16483 ft | 234 kts | 358° |
| 2026-04-30 14:47 | 33.93868 | -80.87698 | 16482 ft | 235 kts | 358° |
| 2026-04-30 14:48 | 33.95483 | -80.87409 | 16496 ft | 235 kts | 358° |
| 2026-04-30 14:48 | 33.97106 | -80.87117 | 16486 ft | 236 kts | 358° |
| 2026-04-30 14:48 | 33.98731 | -80.86824 | 16486 ft | 237 kts | 358° |
| 2026-04-30 14:48 | 34.00363 | -80.86530 | 16482 ft | 237 kts | 358° |
| 2026-04-30 14:49 | 34.01997 | -80.86238 | 16480 ft | 237 kts | 358° |
| 2026-04-30 14:49 | 34.03627 | -80.85942 | 16483 ft | 237 kts | 358° |
| 2026-04-30 14:49 | 34.05259 | -80.85649 | 16490 ft | 237 kts | 358° |
| 2026-04-30 14:49 | 34.06893 | -80.85354 | 16503 ft | 237 kts | 358° |
| 2026-04-30 14:50 | 34.10169 | -80.84765 | 16549 ft | 239 kts | 358° |
| 2026-04-30 14:50 | 34.11821 | -80.84468 | 16571 ft | 241 kts | 358° |
| 2026-04-30 14:51 | 34.15165 | -80.83863 | 16561 ft | 245 kts | 359° |
| 2026-04-30 14:51 | 34.16854 | -80.83557 | 16571 ft | 246 kts | 359° |
| 2026-04-30 14:51 | 34.20273 | -80.82938 | 16609 ft | 251 kts | 359° |
| 2026-04-30 14:52 | 34.22008 | -80.82626 | 16613 ft | 253 kts | 359° |
| 2026-04-30 14:52 | 34.25513 | -80.81988 | 16575 ft | 255 kts | 359° |
| 2026-04-30 14:52 | 34.27265 | -80.81670 | 16534 ft | 254 kts | 359° |
| 2026-04-30 14:53 | 34.30709 | -80.81049 | 16525 ft | 251 kts | 359° |
| 2026-04-30 14:53 | 34.32429 | -80.80737 | 16520 ft | 249 kts | 359° |
| 2026-04-30 14:54 | 34.35837 | -80.80119 | 16525 ft | 247 kts | 359° |
| 2026-04-30 14:54 | 34.39218 | -80.79504 | 16533 ft | 244 kts | 359° |
| 2026-04-30 14:55 | 34.42590 | -80.78892 | 16586 ft | 246 kts | 359° |
| 2026-04-30 14:55 | 34.44292 | -80.78583 | 16603 ft | 249 kts | 359° |
| 2026-04-30 14:55 | 34.47751 | -80.77952 | 16662 ft | 255 kts | 359° |
| 2026-04-30 14:56 | 34.51300 | -80.77305 | 16609 ft | 259 kts | 359° |
| 2026-04-30 14:56 | 34.54849 | -80.76658 | 16540 ft | 256 kts | 359° |
| 2026-04-30 14:57 | 34.56605 | -80.76338 | 16529 ft | 254 kts | 359° |
| 2026-04-30 14:57 | 34.60084 | -80.75704 | 16521 ft | 251 kts | 359° |
| 2026-04-30 14:58 | 34.63526 | -80.75075 | 16518 ft | 249 kts | 359° |
| 2026-04-30 14:58 | 34.65234 | -80.74756 | 16536 ft | 248 kts | 358° |
| 2026-04-30 14:58 | 34.68639 | -80.74142 | 16517 ft | 247 kts | 358° |
| 2026-04-30 14:59 | 34.72023 | -80.73522 | 16512 ft | 245 kts | 358° |
| 2026-04-30 15:00 | 34.77072 | -80.72596 | 16514 ft | 244 kts | 358° |
| 2026-04-30 15:00 | 34.80427 | -80.71980 | 16519 ft | 244 kts | 358° |
| 2026-04-30 15:01 | 34.83750 | -80.71371 | 16525 ft | 243 kts | 358° |
| 2026-04-30 15:01 | 34.84878 | -80.71163 | 16525 ft | 242 kts | 358° |
| 2026-04-30 15:01 | 34.88752 | -80.70451 | 16547 ft | 243 kts | 358° |
| 2026-04-30 15:02 | 34.90428 | -80.70145 | 16566 ft | 244 kts | 358° |
| 2026-04-30 15:02 | 34.92111 | -80.69834 | 16565 ft | 245 kts | 358° |
| 2026-04-30 15:03 | 34.97201 | -80.68895 | 16575 ft | 248 kts | 358° |
| 2026-04-30 15:03 | 35.00626 | -80.68264 | 16538 ft | 250 kts | 358° |
| 2026-04-30 15:04 | 35.04071 | -80.67627 | 16545 ft | 251 kts | 358° |
| 2026-04-30 15:04 | 35.09254 | -80.66670 | 16528 ft | 251 kts | 358° |
| 2026-04-30 15:05 | 35.14421 | -80.65715 | 16535 ft | 250 kts | 358° |
| 2026-04-30 15:06 | 35.17851 | -80.65080 | 16519 ft | 249 kts | 358° |
| 2026-04-30 15:06 | 35.21273 | -80.64447 | 16515 ft | 248 kts | 358° |
| 2026-04-30 15:07 | 35.24689 | -80.63813 | 16513 ft | 248 kts | 358° |
| 2026-04-30 15:07 | 35.28077 | -80.63184 | 16512 ft | 248 kts | 358° |
| 2026-04-30 15:08 | 35.31509 | -80.62548 | 16551 ft | 251 kts | 358° |
| 2026-04-30 15:08 | 35.36716 | -80.61578 | 16552 ft | 254 kts | 358° |
| 2026-04-30 15:09 | 35.40227 | -80.60923 | 16573 ft | 257 kts | 358° |
| 2026-04-30 15:09 | 35.43770 | -80.60264 | 16515 ft | 258 kts | 358° |
| 2026-04-30 15:10 | 35.47309 | -80.59604 | 16506 ft | 257 kts | 358° |
| 2026-04-30 15:11 | 35.53771 | -80.58397 | 16486 ft | 257 kts | 358° |
| 2026-04-30 15:11 | 35.57297 | -80.57739 | 16481 ft | 255 kts | 358° |
| 2026-04-30 15:12 | 35.62541 | -80.56756 | 16478 ft | 253 kts | 358° |
| 2026-04-30 15:13 | 35.66007 | -80.56107 | 16484 ft | 251 kts | 358° |
| 2026-04-30 15:14 | 35.72972 | -80.54800 | 16539 ft | 256 kts | 358° |
| 2026-04-30 15:14 | 35.78304 | -80.53800 | 16548 ft | 260 kts | 358° |
| 2026-04-30 15:16 | 35.87275 | -80.52109 | 16507 ft | 260 kts | 358° |
| 2026-04-30 15:17 | 35.94371 | -80.50772 | 16486 ft | 256 kts | 358° |
| 2026-04-30 15:18 | 36.03131 | -80.49115 | 16478 ft | 255 kts | 358° |
| 2026-04-30 15:19 | 36.08378 | -80.48121 | 16475 ft | 254 kts | 358° |